Time;durP1;ratioP1;P1;durP2;ratioP2;P2;SDS_P1;SDS_P2;PMS_P1;PMS_P2;Temp;Humidity;BMP_temperature;BMP_pressure;BME280_temperature;BME280_humidity;BME280_pressure;Samples;Min_cycle;Max_cycle;Signal;HPM_P1;HPM_P2
2022/01/28 00:00:11;;;;;;;15.93;3.20;;;;;;;7.19;100.00;103074.69;5101027;28;20051;-68
2022/01/28 00:05:22;;;;;;;19.77;2.63;;;;;;;7.25;100.00;103078.50;5103842;28;20370;-68
2022/01/28 00:07:52;;;;;;;23.13;4.20;;;;;;;7.11;100.00;103074.88;5101848;28;20771;-70
2022/01/28 00:10:20;;;;;;;18.33;3.20;;;;;;;7.07;100.00;103082.63;5102136;28;20103;-69
2022/01/28 00:13:18;;;;;;;21.05;3.03;;;;;;;7.16;100.00;103086.84;5102786;28;20127;-69
2022/01/28 00:15:41;;;;;;;17.88;3.22;;;;;;;7.18;100.00;103081.19;5098044;28;20044;-69
2022/01/28 00:39:44;;;;;;;16.95;3.05;;;;;;;7.25;100.00;103070.31;5076654;28;20118;-68
2022/01/28 00:42:09;;;;;;;18.73;3.60;;;;;;;7.20;100.00;103081.84;5100758;28;20107;-69
2022/01/28 00:44:35;;;;;;;22.15;3.22;;;;;;;7.20;100.00;103081.84;5089605;28;20155;-68
2022/01/28 00:47:01;;;;;;;13.57;2.50;;;;;;;7.08;100.00;103094.38;5080318;28;20032;-69
2022/01/28 00:49:26;;;;;;;18.20;2.50;;;;;;;7.16;100.00;103086.84;5083503;28;20031;-68
2022/01/28 00:51:52;;;;;;;15.05;2.45;;;;;;;7.18;100.00;103092.09;5080098;28;20028;-69
2022/01/28 00:54:18;;;;;;;14.25;2.78;;;;;;;7.33;100.00;103091.97;5082773;28;20071;-69
2022/01/28 00:56:44;;;;;;;17.42;3.13;;;;;;;7.26;100.00;103100.09;5076949;28;20564;-68
2022/01/28 00:59:09;;;;;;;19.92;3.13;;;;;;;7.24;100.00;103099.47;5079255;28;20124;-68
2022/01/28 01:01:36;;;;;;;20.17;3.53;;;;;;;7.46;100.00;103102.03;5080722;28;20111;-68
2022/01/28 01:04:01;;;;;;;21.92;3.25;;;;;;;7.43;100.00;103102.47;5080069;28;20089;-68
2022/01/28 01:06:27;;;;;;;15.48;2.67;;;;;;;7.48;100.00;103097.25;5083259;28;20036;-68
2022/01/28 01:08:52;;;;;;;13.32;2.80;;;;;;;7.30;100.00;103098.66;5081887;28;20517;-69
2022/01/28 01:11:21;;;;;;;17.35;3.10;;;;;;;7.13;100.00;103102.78;5080962;28;20032;-69
2022/01/28 01:13:47;;;;;;;15.57;3.05;;;;;;;7.43;100.00;103097.84;5077119;28;20486;-69
2022/01/28 01:16:15;;;;;;;25.13;4.10;;;;;;;7.24;100.00;103102.19;5078043;28;20359;-69
2022/01/28 01:18:53;;;;;;;25.35;3.35;;;;;;;7.28;100.00;103113.53;5081724;28;20494;-69
2022/01/28 01:21:25;;;;;;;18.95;3.42;;;;;;;7.39;100.00;103110.22;5079775;28;20446;-69
2022/01/28 01:23:54;;;;;;;19.88;3.60;;;;;;;7.36;100.00;103114.22;5078759;28;20413;-68
2022/01/28 01:26:28;;;;;;;25.33;3.05;;;;;;;7.26;100.00;103123.81;5056823;28;20438;-68
2022/01/28 01:28:53;;;;;;;30.00;3.88;;;;;;;7.30;100.00;103131.41;5054628;28;20394;-69
2022/01/28 01:31:19;;;;;;;26.65;3.85;;;;;;;7.13;100.00;103135.50;5075226;28;20070;-68
2022/01/28 01:34:02;;;;;;;17.73;3.40;;;;;;;7.23;100.00;103136.00;5076415;28;20024;-68
2022/01/28 01:36:27;;;;;;;26.50;4.18;;;;;;;7.33;100.00;103146.53;5085216;28;20055;-68
2022/01/28 01:38:53;;;;;;;17.05;3.25;;;;;;;7.12;100.00;103144.75;5098794;28;20062;-68
2022/01/28 01:41:29;;;;;;;23.20;3.40;;;;;;;7.30;100.00;103146.94;5099036;28;20168;-68
2022/01/28 01:44:23;;;;;;;20.20;3.00;;;;;;;7.32;100.00;103155.75;5094978;28;20178;-69
2022/01/28 01:52:33;;;;;;;24.20;3.45;;;;;;;7.45;100.00;103168.63;5081727;28;20570;-69
2022/01/28 01:54:58;;;;;;;15.40;2.75;;;;;;;6.93;100.00;103188.06;5076532;28;20040;-69
2022/01/28 01:57:23;;;;;;;18.40;2.63;;;;;;;6.98;100.00;103174.69;5081801;28;20040;-67
2022/01/28 01:59:49;;;;;;;21.35;3.63;;;;;;;6.56;100.00;103175.63;5080547;28;20034;-69
2022/01/28 02:02:15;;;;;;;21.60;2.70;;;;;;;6.67;100.00;103185.16;5084096;28;20479;-69
2022/01/28 02:04:40;;;;;;;21.58;3.30;;;;;;;6.79;100.00;103178.97;5062822;28;20483;-67
2022/01/28 02:07:06;;;;;;;14.00;2.90;;;;;;;6.77;100.00;103183.78;5068160;28;20164;-69
2022/01/28 02:09:32;;;;;;;20.00;2.92;;;;;;;6.91;100.00;103179.25;5081438;28;20028;-69
2022/01/28 02:11:57;;;;;;;16.15;3.25;;;;;;;6.84;100.00;103180.25;5083595;28;20361;-69
2022/01/28 02:14:23;;;;;;;15.27;3.13;;;;;;;6.77;100.00;103177.47;5083386;28;20024;-70
2022/01/28 02:16:48;;;;;;;25.45;3.78;;;;;;;6.78;100.00;103174.53;5062650;28;20040;-69
2022/01/28 02:19:15;;;;;;;28.23;3.63;;;;;;;6.88;100.00;103185.09;5082068;28;20471;-69
2022/01/28 02:21:48;;;;;;;17.73;2.80;;;;;;;6.83;100.00;103173.13;5048815;28;20978;-70
2022/01/28 02:24:20;;;;;;;17.27;3.30;;;;;;;7.02;100.00;103179.72;5084789;28;20062;-70
2022/01/28 02:26:45;;;;;;;18.40;3.60;;;;;;;6.81;100.00;103184.22;5080449;28;20039;-70
2022/01/28 02:29:14;;;;;;;29.23;4.30;;;;;;;6.92;100.00;103183.66;5080911;28;20032;-68
2022/01/28 02:31:42;;;;;;;21.08;3.65;;;;;;;7.05;100.00;103176.59;5080742;28;20020;-70
2022/01/28 02:34:11;;;;;;;20.50;3.72;;;;;;;6.87;100.00;103188.88;5081128;28;20039;-69
2022/01/28 02:36:37;;;;;;;24.77;3.97;;;;;;;6.78;100.00;103193.63;5066796;28;20214;-70
2022/01/28 02:39:03;;;;;;;21.58;3.58;;;;;;;6.99;100.00;103190.00;5068157;28;20528;-69
2022/01/28 02:41:35;;;;;;;18.60;3.53;;;;;;;6.77;100.00;103191.97;5079493;28;20486;-69
2022/01/28 02:46:58;;;;;;;19.65;3.38;;;;;;;6.88;100.00;103193.28;5088775;28;20039;-69
2022/01/28 02:49:33;;;;;;;16.55;3.30;;;;;;;6.75;100.00;103201.38;5066592;28;20032;-70
2022/01/28 02:51:59;;;;;;;19.08;3.17;;;;;;;7.05;100.00;103201.16;5064028;28;20074;-69
2022/01/28 02:54:25;;;;;;;19.95;2.90;;;;;;;6.97;100.00;103205.72;5082327;28;20028;-69
2022/01/28 02:56:58;;;;;;;18.73;3.00;;;;;;;6.82;100.00;103204.97;5080305;28;20031;-68
2022/01/28 02:59:24;;;;;;;21.73;3.67;;;;;;;6.86;100.00;103197.25;5064333;28;20027;-70
2022/01/28 03:01:49;;;;;;;16.67;2.72;;;;;;;7.00;100.00;103207.19;5052539;28;20383;-70
2022/01/28 03:07:10;;;;;;;18.65;2.80;;;;;;;6.99;100.00;103208.25;5034639;27;20394;-70
2022/01/28 03:09:52;;;;;;;16.50;2.95;;;;;;;7.01;100.00;103221.69;5064697;28;20045;-69
2022/01/28 03:12:31;;;;;;;17.20;3.92;;;;;;;6.81;100.00;103220.50;5088037;28;20119;-70
2022/01/28 03:15:08;;;;;;;17.88;3.10;;;;;;;6.91;100.00;103227.50;5099630;28;20185;-69
2022/01/28 03:20:35;;;;;;;18.40;3.30;;;;;;;6.70;100.00;103222.94;5079203;28;20347;-70
2022/01/28 03:23:01;;;;;;;15.02;2.70;;;;;;;6.84;100.00;103222.00;5079761;28;20168;-70
2022/01/28 03:25:27;;;;;;;19.70;3.20;;;;;;;6.85;100.00;103223.66;5080489;28;20028;-70
2022/01/28 03:27:56;;;;;;;14.25;3.13;;;;;;;6.69;100.00;103219.38;5081672;28;20058;-68
2022/01/28 03:30:22;;;;;;;19.67;3.10;;;;;;;6.73;100.00;103226.09;5065563;28;20482;-71
2022/01/28 03:32:52;;;;;;;20.17;3.35;;;;;;;6.56;100.00;103220.09;5061858;28;20028;-69
2022/01/28 03:35:19;;;;;;;15.25;2.78;;;;;;;6.63;100.00;103229.16;5049148;28;20051;-69
2022/01/28 03:37:44;;;;;;;12.85;2.28;;;;;;;6.71;100.00;103224.63;5098281;28;20035;-68
2022/01/28 03:40:10;;;;;;;18.25;3.33;;;;;;;6.72;100.00;103226.31;5097070;28;20545;-69
2022/01/28 03:42:37;;;;;;;14.48;2.80;;;;;;;6.55;100.00;103229.31;5101556;28;20116;-69
2022/01/28 03:45:06;;;;;;;16.10;2.90;;;;;;;6.48;100.00;103231.16;5099508;28;20096;-68
2022/01/28 03:47:32;;;;;;;14.63;2.20;;;;;;;6.54;100.00;103224.91;5100235;28;20489;-69
2022/01/28 03:49:58;;;;;;;20.02;3.25;;;;;;;6.49;100.00;103231.97;5100347;27;20038;-70
2022/01/28 03:52:23;;;;;;;15.63;2.97;;;;;;;6.43;100.00;103239.91;5102220;28;20031;-69
2022/01/28 03:55:08;;;;;;;12.93;3.00;;;;;;;6.53;100.00;103228.69;5082432;28;20462;-71
2022/01/28 03:57:33;;;;;;;15.30;2.42;;;;;;;6.52;100.00;103226.16;5102493;28;20531;-70
2022/01/28 03:59:58;;;;;;;11.48;2.22;;;;;;;6.59;100.00;103225.16;5082449;28;20036;-69
2022/01/28 04:02:28;;;;;;;23.25;2.90;;;;;;;6.48;100.00;103233.00;5081890;28;20070;-69
2022/01/28 04:13:25;;;;;;;17.42;3.03;;;;;;;6.62;100.00;103238.41;5073749;28;20078;-69
2022/01/28 04:16:31;;;;;;;16.05;2.70;;;;;;;6.62;100.00;103243.00;5082854;28;20098;-69
2022/01/28 04:18:37;;;;;;;22.75;3.20;;;;;;;6.51;100.00;103240.78;5081294;28;20035;-70
2022/01/28 04:21:03;;;;;;;11.77;2.45;;;;;;;6.61;100.00;103247.63;5061056;28;20028;-70
2022/01/28 04:23:28;;;;;;;17.73;2.58;;;;;;;6.44;100.00;103238.00;5075067;28;20092;-70
2022/01/28 04:25:55;;;;;;;13.85;2.45;;;;;;;6.60;100.00;103240.47;5077672;28;20039;-69
2022/01/28 04:28:20;;;;;;;17.92;3.00;;;;;;;6.54;100.00;103248.59;5079269;28;20024;-69
2022/01/28 04:30:47;;;;;;;16.17;2.50;;;;;;;6.78;100.00;103244.59;5047825;28;20568;-69
2022/01/28 04:33:13;;;;;;;21.15;3.10;;;;;;;6.57;100.00;103254.47;5079286;28;20035;-69
2022/01/28 04:35:38;;;;;;;14.80;3.22;;;;;;;6.63;100.00;103242.81;5083495;28;20047;-69
2022/01/28 04:38:25;;;;;;;15.25;2.58;;;;;;;6.54;100.00;103254.03;5078328;28;20064;-70
2022/01/28 04:43:31;;;;;;;;;;;;;;;6.51;100.00;103258.00;5078890;28;20035;-69
2022/01/28 04:46:16;;;;;;;17.80;2.67;;;;;;;6.67;100.00;103266.94;5074984;28;20313;-70
2022/01/28 04:48:53;;;;;;;20.23;3.03;;;;;;;6.66;100.00;103268.84;5062791;28;20074;-69
2022/01/28 04:51:44;;;;;;;18.83;2.90;;;;;;;6.57;100.00;103257.22;5081371;28;20032;-68
2022/01/28 05:25:46;;;;;;;15.10;2.80;;;;;;;6.33;100.00;103290.31;5071261;28;20093;-69
2022/01/28 05:27:48;;;;;;;12.38;1.92;;;;;;;6.50;100.00;103280.84;5077478;28;20039;-68
2022/01/28 05:30:14;;;;;;;17.55;2.72;;;;;;;6.66;100.00;103287.06;5062520;28;20027;-68
2022/01/28 05:32:39;;;;;;;12.63;2.38;;;;;;;6.70;100.00;103286.47;5086832;28;20032;-68
2022/01/28 05:35:05;;;;;;;15.73;2.65;;;;;;;6.86;100.00;103295.44;5081648;28;20050;-70
2022/01/28 05:37:30;;;;;;;19.00;3.15;;;;;;;6.62;100.00;103295.66;5091273;28;20035;-70
2022/01/28 05:39:57;;;;;;;19.00;3.00;;;;;;;6.49;100.00;103286.50;5101185;28;20492;-69
2022/01/28 05:42:22;;;;;;;15.40;2.63;;;;;;;6.42;100.00;103289.16;5083366;28;20115;-69
2022/01/28 05:44:47;;;;;;;17.42;2.65;;;;;;;6.65;100.00;103297.13;5079158;28;20040;-69
2022/01/28 05:47:15;;;;;;;13.90;2.47;;;;;;;6.45;100.00;103302.38;5066261;28;20028;-69
2022/01/28 05:49:42;;;;;;;15.80;2.78;;;;;;;6.53;100.00;103304.16;5082203;28;20385;-69
2022/01/28 05:52:09;;;;;;;20.35;3.28;;;;;;;6.45;100.00;103296.94;5083410;28;20454;-67
2022/01/28 05:54:34;;;;;;;25.17;3.45;;;;;;;6.25;100.00;103303.03;5084923;28;20062;-69
2022/01/28 05:57:01;;;;;;;15.75;2.60;;;;;;;6.53;100.00;103302.25;5104983;28;20062;-70
2022/01/28 05:59:26;;;;;;;17.75;2.83;;;;;;;6.40;100.00;103316.59;5097813;28;20085;-71
2022/01/28 06:01:52;;;;;;;15.75;2.58;;;;;;;6.27;100.00;103327.34;5106079;28;20023;-69
2022/01/28 06:04:19;;;;;;;20.15;3.65;;;;;;;6.18;100.00;103329.34;5100240;28;20302;-69
2022/01/28 06:06:45;;;;;;;17.02;2.50;;;;;;;6.23;100.00;103326.91;5103905;28;20120;-70
2022/01/28 06:09:10;;;;;;;12.82;2.50;;;;;;;6.32;100.00;103326.78;5101996;28;20054;-70
2022/01/28 06:11:37;;;;;;;20.13;2.72;;;;;;;6.13;100.00;103329.06;5106205;28;20102;-69
2022/01/28 06:14:04;;;;;;;21.77;2.97;;;;;;;6.34;100.00;103338.31;5088690;28;20111;-69
2022/01/28 06:16:29;;;;;;;20.70;3.00;;;;;;;6.18;100.00;103329.34;5066471;28;20046;-69
2022/01/28 06:18:55;;;;;;;21.05;2.50;;;;;;;6.22;100.00;103327.91;5082074;28;20561;-69
2022/01/28 06:21:20;;;;;;;19.40;2.80;;;;;;;6.04;100.00;103328.34;5084747;28;20163;-69
2022/01/28 06:23:46;;;;;;;15.38;3.30;;;;;;;6.15;100.00;103337.91;5082930;28;20510;-70
2022/01/28 06:26:11;;;;;;;16.98;3.05;;;;;;;6.18;100.00;103351.16;5079890;28;20352;-70
2022/01/28 06:28:37;;;;;;;12.07;2.50;;;;;;;6.32;100.00;103359.47;5078573;28;20035;-69
2022/01/28 06:31:03;;;;;;;13.50;2.15;;;;;;;6.11;100.00;103352.94;5087529;28;20127;-70
2022/01/28 06:33:36;;;;;;;24.83;3.92;;;;;;;6.15;100.00;103356.97;5078609;28;20036;-69
2022/01/28 06:36:05;;;;;;;;;;;;;;;6.01;100.00;103352.38;5082692;28;20430;-69
2022/01/28 06:38:33;;;;;;;14.75;2.65;;;;;;;6.03;100.00;103358.47;5079957;28;19947;-69
2022/01/28 06:40:58;;;;;;;16.58;2.72;;;;;;;6.20;100.00;103356.41;5084351;28;20503;-68
2022/01/28 06:43:24;;;;;;;12.43;2.45;;;;;;;6.23;100.00;103372.34;5073732;28;20241;-69
2022/01/28 06:45:49;;;;;;;12.98;1.90;;;;;;;6.25;100.00;103383.91;5082082;28;20474;-70
2022/01/28 06:48:16;;;;;;;15.63;2.45;;;;;;;6.08;100.00;103375.09;5077980;28;20032;-70
2022/01/28 06:50:42;;;;;;;19.38;2.92;;;;;;;6.28;100.00;103369.06;5063039;28;20439;-68
2022/01/28 06:53:10;;;;;;;13.90;3.00;;;;;;;6.14;100.00;103377.06;5080665;28;20020;-69
2022/01/28 06:55:36;;;;;;;13.43;2.85;;;;;;;6.22;100.00;103390.56;5084301;28;20043;-69
2022/01/28 06:58:03;;;;;;;17.80;2.80;;;;;;;6.46;100.00;103398.59;5077635;28;20085;-69
2022/01/28 07:00:34;;;;;;;14.55;2.58;;;;;;;6.46;100.00;103401.34;5068395;28;20310;-69
2022/01/28 07:03:01;;;;;;;13.45;2.92;;;;;;;6.49;100.00;103400.97;5066631;28;20433;-68
2022/01/28 07:05:26;;;;;;;23.38;3.80;;;;;;;6.23;100.00;103399.59;5034143;28;20484;-69
2022/01/28 07:07:53;;;;;;;15.55;3.25;;;;;;;6.49;100.00;103411.84;5078924;28;20028;-68
2022/01/28 07:10:18;;;;;;;18.33;3.40;;;;;;;6.60;100.00;103406.75;5052766;28;20024;-69
2022/01/28 07:12:45;;;;;;;16.63;3.33;;;;;;;6.76;100.00;103410.28;5057111;28;20063;-68
2022/01/28 07:15:11;;;;;;;13.32;2.67;;;;;;;6.70;100.00;103408.31;5049781;28;20232;-67
2022/01/28 07:17:36;;;;;;;14.77;2.90;;;;;;;6.73;100.00;103410.66;5074049;28;20032;-68
2022/01/28 07:20:04;;;;;;;11.98;3.67;;;;;;;6.68;100.00;103416.69;5082398;28;20612;-68
2022/01/28 07:22:29;;;;;;;12.40;3.72;;;;;;;6.54;100.00;103410.25;5079587;28;20414;-68
2022/01/28 07:24:55;;;;;;;14.30;4.55;;;;;;;6.41;100.00;103418.25;5083953;28;20439;-70
2022/01/28 07:27:21;;;;;;;19.35;3.92;;;;;;;6.33;100.00;103418.38;5062521;28;20440;-68
2022/01/28 07:29:49;;;;;;;17.17;3.28;;;;;;;6.30;100.00;103416.88;5080193;28;20024;-68
2022/01/28 07:32:15;;;;;;;18.42;3.45;;;;;;;6.30;100.00;103407.88;5077840;28;20030;-68
2022/01/28 07:34:40;;;;;;;16.75;3.33;;;;;;;6.27;100.00;103424.59;5082545;28;20277;-69
2022/01/28 07:37:05;;;;;;;17.05;3.28;;;;;;;6.18;100.00;103421.97;5083282;28;20058;-68
2022/01/28 07:39:31;;;;;;;15.40;3.42;;;;;;;6.11;100.00;103421.03;5080479;28;20474;-68
2022/01/28 07:41:57;;;;;;;15.18;3.75;;;;;;;6.15;100.00;103437.81;5083305;28;20032;-68
2022/01/28 07:44:22;;;;;;;15.02;3.08;;;;;;;6.14;100.00;103433.44;5077193;28;20047;-69
2022/01/28 07:46:48;;;;;;;11.45;3.80;;;;;;;6.16;100.00;103439.53;5081099;28;20437;-71
2022/01/28 07:49:16;;;;;;;15.32;3.97;;;;;;;6.16;100.00;103440.38;5061396;28;20036;-70
2022/01/28 07:51:42;;;;;;;14.10;3.85;;;;;;;6.11;100.00;103442.81;5081253;28;20032;-70
2022/01/28 07:54:09;;;;;;;20.02;4.43;;;;;;;6.14;100.00;103442.44;5080906;28;20490;-68
2022/01/28 07:56:35;;;;;;;16.80;4.38;;;;;;;6.15;100.00;103446.88;5061908;28;20032;-69
2022/01/28 07:59:01;;;;;;;15.55;3.05;;;;;;;6.09;100.00;103461.22;5090929;28;20028;-69
2022/01/28 08:01:26;;;;;;;19.55;4.00;;;;;;;6.09;100.00;103461.22;5081426;28;20036;-68
2022/01/28 08:03:52;;;;;;;21.60;3.72;;;;;;;6.09;100.00;103466.69;5086578;28;20030;-69
2022/01/28 08:06:17;;;;;;;18.45;3.53;;;;;;;6.15;100.00;103463.22;5091943;28;20367;-67
2022/01/28 08:08:43;;;;;;;18.67;3.45;;;;;;;6.33;100.00;103460.09;5083335;28;20032;-68
2022/01/28 08:11:08;;;;;;;20.60;4.15;;;;;;;6.49;100.00;103456.28;5081227;28;20081;-68
2022/01/28 08:13:33;;;;;;;15.95;3.45;;;;;;;6.50;100.00;103468.06;5058809;28;20054;-69
2022/01/28 08:15:59;;;;;;;22.98;3.47;;;;;;;6.42;100.00;103466.28;5089438;28;20063;-68
2022/01/28 08:18:25;;;;;;;12.80;3.05;;;;;;;6.54;100.00;103469.34;5099401;28;20278;-68
2022/01/28 08:20:52;;;;;;;14.95;2.80;;;;;;;6.76;100.00;103473.00;5100359;28;20545;-68
2022/01/28 08:23:18;;;;;;;18.33;3.28;;;;;;;6.88;100.00;103486.97;5079263;28;20032;-68
2022/01/28 08:25:44;;;;;;;18.23;3.30;;;;;;;6.81;100.00;103479.53;5081616;28;20103;-70
2022/01/28 08:28:14;;;;;;;19.17;3.78;;;;;;;7.09;100.00;103484.25;5082122;28;20367;-71
2022/01/28 08:30:40;;;;;;;18.08;3.55;;;;;;;7.16;100.00;103484.31;5060973;28;20116;-68
2022/01/28 08:33:06;;;;;;;18.35;2.92;;;;;;;7.17;100.00;103486.88;5103481;28;20031;-67
2022/01/28 08:35:37;;;;;;;19.92;3.55;;;;;;;7.43;100.00;103484.56;5100498;28;20209;-72
2022/01/28 08:38:05;;;;;;;16.13;3.85;;;;;;;7.29;100.00;103489.91;5099201;28;20115;-68
2022/01/28 08:40:31;;;;;;;17.08;3.85;;;;;;;7.43;100.00;103495.50;5080324;28;20032;-68
2022/01/28 08:42:56;;;;;;;16.45;3.72;;;;;;;7.43;100.00;103490.91;5082634;28;20028;-70
2022/01/28 08:45:22;;;;;;;27.38;4.88;;;;;;;7.48;100.00;103487.59;5075457;28;20047;-68
2022/01/28 08:47:48;;;;;;;24.30;4.10;;;;;;;7.54;100.00;103497.69;5083170;28;20040;-69
2022/01/28 08:53:20;;;;;;;27.27;4.28;;;;;;;7.80;100.00;103486.13;5078045;28;20039;-69
2022/01/28 08:55:46;;;;;;;17.85;4.18;;;;;;;7.87;100.00;103489.78;5045188;28;20017;-69
2022/01/28 08:58:14;;;;;;;16.77;3.08;;;;;;;7.76;100.00;103484.03;5063744;28;20039;-69
2022/01/28 09:00:40;;;;;;;19.67;3.45;;;;;;;7.87;100.00;103491.66;5064092;28;20174;-70
2022/01/28 09:03:06;;;;;;;20.98;3.33;;;;;;;7.81;100.00;103493.31;5082182;28;20401;-69
2022/01/28 09:05:33;;;;;;;18.17;3.22;;;;;;;8.01;100.00;103507.09;5080926;28;20306;-70
2022/01/28 09:07:59;;;;;;;17.65;3.10;;;;;;;8.03;100.00;103510.47;5103659;28;21385;-71
2022/01/28 09:10:29;;;;;;;18.45;3.13;;;;;;;8.06;100.00;103511.97;5100458;28;20478;-69
2022/01/28 09:15:34;;;;;;;15.88;2.85;;;;;;;8.23;100.00;103518.81;5093425;28;20493;-69
2022/01/28 09:17:59;;;;;;;18.48;2.45;;;;;;;8.58;100.00;103518.00;5081430;28;20024;-70
2022/01/28 09:20:25;;;;;;;15.60;2.90;;;;;;;8.27;100.00;103511.91;5073609;28;20109;-70
2022/01/28 09:22:51;;;;;;;17.30;3.10;;;;;;;8.26;100.00;103532.09;5081537;28;20455;-69
2022/01/28 09:25:18;;;;;;;21.77;3.35;;;;;;;8.77;100.00;103519.09;5080496;28;20032;-70
2022/01/28 09:27:43;;;;;;;12.23;2.25;;;;;;;8.61;100.00;103523.88;5061415;28;20815;-69
2022/01/28 09:30:09;;;;;;;14.18;2.67;;;;;;;8.60;100.00;103529.56;5075682;28;20040;-68
2022/01/28 09:32:34;;;;;;;12.45;2.30;;;;;;;8.76;100.00;103539.31;5079500;28;20039;-68
2022/01/28 09:35:01;;;;;;;16.20;2.72;;;;;;;9.28;100.00;103545.16;5059631;28;20028;-68
2022/01/28 09:37:27;;;;;;;14.85;2.50;;;;;;;9.54;100.00;103525.19;5075413;28;20043;-68
2022/01/28 09:39:52;;;;;;;13.80;2.35;;;;;;;9.46;100.00;103526.25;5062322;28;20024;-68
2022/01/28 09:42:22;;;;;;;13.05;2.45;;;;;;;8.94;100.00;103525.06;5080570;28;21109;-70
2022/01/28 09:44:49;;;;;;;12.45;2.33;;;;;;;9.04;100.00;103530.16;5073658;28;20040;-70
2022/01/28 09:47:15;;;;;;;10.63;2.53;;;;;;;9.07;100.00;103527.84;5080946;28;20066;-69
2022/01/28 09:49:41;;;;;;;13.68;2.05;;;;;;;8.98;100.00;103521.69;5079429;28;20098;-68
2022/01/28 09:52:08;;;;;;;18.08;2.28;;;;;;;8.50;100.00;103509.97;5058473;28;20040;-69
2022/01/28 09:54:35;;;;;;;11.85;2.75;;;;;;;8.95;100.00;103515.81;5078160;28;20485;-69
2022/01/28 09:57:02;;;;;;;14.07;2.25;;;;;;;9.32;100.00;103521.78;5083459;28;20028;-68
2022/01/28 09:59:27;;;;;;;11.73;2.38;;;;;;;9.48;100.00;103521.41;5087170;28;20024;-69
2022/01/28 10:01:54;;;;;;;18.05;2.35;;;;;;;8.98;100.00;103512.66;5085778;28;20052;-69
2022/01/28 10:04:21;;;;;;;12.60;2.42;;;;;;;8.91;100.00;103517.28;5068617;28;20501;-68
2022/01/28 10:06:47;;;;;;;15.27;2.42;;;;;;;9.36;100.00;103521.19;5075934;28;20029;-68
2022/01/28 10:09:17;;;;;;;10.25;1.95;;;;;;;9.45;100.00;103516.34;5079998;28;20111;-69
2022/01/28 10:11:46;;;;;;;12.10;2.13;;;;;;;9.92;100.00;103513.63;5085403;28;20027;-68
2022/01/28 10:14:18;;;;;;;12.77;2.63;;;;;;;9.61;100.00;103525.19;5079480;28;20024;-68
2022/01/28 10:16:58;;;;;;;10.40;2.42;;;;;;;8.59;100.00;103525.13;5077531;28;20040;-68
2022/01/28 10:19:36;;;;;;;12.98;2.45;;;;;;;8.93;100.00;103534.31;5081933;28;20023;-67
2022/01/28 10:22:01;;;;;;;18.80;3.13;;;;;;;8.96;100.00;103533.91;5082483;28;20032;-68
2022/01/28 10:24:28;;;;;;;16.77;2.20;;;;;;;9.42;100.00;103537.81;5084664;28;20032;-69
2022/01/28 10:27:09;;;;;;;14.48;2.15;;;;;;;9.76;100.00;103545.00;5085678;28;20024;-67
2022/01/28 10:29:37;;;;;;;12.05;2.28;;;;;;;9.45;100.00;103532.78;5079720;28;20107;-69
2022/01/28 10:32:14;;;;;;;9.75;2.10;;;;;;;9.65;100.00;103534.69;5083996;28;20059;-69
2022/01/28 10:34:47;;;;;;;16.52;2.22;;;;;;;9.24;100.00;103531.03;5082925;28;20024;-69
2022/01/28 10:37:19;;;;;;;13.15;2.13;;;;;;;9.22;100.00;103524.94;5082544;28;20062;-69
2022/01/28 10:40:00;;;;;;;11.82;2.10;;;;;;;9.28;100.00;103535.06;5082904;28;20526;-68
2022/01/28 10:42:26;;;;;;;13.05;2.80;;;;;;;9.62;100.00;103530.44;5083363;28;20058;-68
2022/01/28 10:45:19;;;;;;;10.48;2.70;;;;;;;9.73;100.00;103534.47;5079688;28;20040;-68
2022/01/28 10:47:50;;;;;;;13.88;1.98;;;;;;;10.16;100.00;103535.91;5079504;28;20523;-69
2022/01/28 10:50:36;;;;;;;12.45;1.80;;;;;;;9.88;100.00;103526.88;5080708;28;20024;-69
2022/01/28 10:53:09;;;;;;;11.25;2.05;;;;;;;10.06;100.00;103523.47;5084408;28;20024;-69
2022/01/28 10:55:40;;;;;;;17.00;2.45;;;;;;;10.02;100.00;103518.63;5083397;28;20125;-70
2022/01/28 10:58:06;;;;;;;8.55;1.85;;;;;;;9.97;100.00;103524.78;5084576;28;20020;-67
2022/01/28 11:00:35;;;;;;;12.38;2.20;;;;;;;9.96;100.00;103525.81;5078377;28;20527;-67
2022/01/28 11:03:03;;;;;;;13.23;2.55;;;;;;;9.77;100.00;103524.75;5085164;28;20493;-68
2022/01/28 11:05:31;;;;;;;10.00;1.95;;;;;;;9.82;100.00;103515.91;5080008;28;20432;-68
2022/01/28 11:07:57;;;;;;;12.65;2.20;;;;;;;9.73;100.00;103524.34;5084471;28;20482;-68
2022/01/28 11:10:23;;;;;;;13.10;2.58;;;;;;;9.78;100.00;103518.25;5082974;28;20454;-68
2022/01/28 11:12:50;;;;;;;11.57;2.65;;;;;;;9.71;100.00;103511.94;5083939;28;20047;-68
2022/01/28 11:15:16;;;;;;;12.48;2.60;;;;;;;9.45;100.00;103510.84;5082314;28;20435;-69
2022/01/28 11:17:42;;;;;;;11.18;2.15;;;;;;;9.49;100.00;103512.09;5085096;28;20047;-68
2022/01/28 11:20:18;;;;;;;12.93;3.03;;;;;;;9.47;100.00;103508.75;5081237;28;20443;-69
2022/01/28 11:23:02;;;;;;;12.88;2.13;;;;;;;9.35;100.00;103486.63;5066421;28;20133;-68
2022/01/28 11:25:39;;;;;;;16.88;2.50;;;;;;;9.07;100.00;103492.28;5083160;28;20032;-68
2022/01/28 11:28:16;;;;;;;13.73;2.30;;;;;;;8.97;100.00;103492.66;5084739;28;20490;-68
2022/01/28 11:30:50;;;;;;;13.80;2.00;;;;;;;8.76;100.00;103485.44;5079389;28;20040;-70
2022/01/28 11:33:17;;;;;;;12.98;2.45;;;;;;;8.93;100.00;103490.53;5083234;28;20097;-68
2022/01/28 11:36:00;;;;;;;11.93;2.92;;;;;;;9.14;100.00;103490.38;5078817;28;20383;-69
2022/01/28 11:38:26;;;;;;;14.98;3.33;;;;;;;8.90;100.00;103485.47;5081670;28;20077;-69
2022/01/28 11:40:57;;;;;;;13.48;2.83;;;;;;;9.27;100.00;103491.47;5080627;28;20353;-68
2022/01/28 11:43:28;;;;;;;19.13;3.80;;;;;;;9.25;100.00;103488.06;5080126;28;20367;-68
2022/01/28 11:46:27;;;;;;;11.20;2.42;;;;;;;9.00;100.00;103475.84;5080745;28;20119;-69
2022/01/28 11:48:52;;;;;;;10.55;2.47;;;;;;;9.33;100.00;103479.66;5077482;28;20050;-68
2022/01/28 11:51:20;;;;;;;11.35;3.00;;;;;;;9.40;100.00;103480.53;5079784;28;20027;-69
2022/01/28 11:53:57;;;;;;;12.02;2.60;;;;;;;9.22;100.00;103466.63;5079120;28;20420;-69
2022/01/28 11:56:26;;;;;;;16.88;3.30;;;;;;;9.16;100.00;103466.38;5081667;28;20020;-70
2022/01/28 11:58:58;;;;;;;15.90;3.08;;;;;;;9.29;100.00;103464.72;5077341;28;20275;-68
2022/01/28 12:01:35;;;;;;;12.70;2.95;;;;;;;9.39;100.00;103456.94;5086216;28;20024;-69
2022/01/28 12:07:00;;;;;;;13.60;3.65;;;;;;;9.54;100.00;103438.41;5099153;28;20645;-68
2022/01/28 12:09:26;;;;;;;15.80;4.10;;;;;;;9.61;100.00;103438.41;5100049;28;20104;-68
2022/01/28 12:11:52;;;;;;;22.75;4.32;;;;;;;9.46;100.00;103437.75;5101358;28;20184;-69
2022/01/28 12:14:38;;;;;;;12.73;3.42;;;;;;;9.43;100.00;103432.69;5090497;28;20122;-68
2022/01/28 12:17:29;;;;;;;17.08;3.72;;;;;;;9.25;100.00;103431.44;5084425;28;20028;-68
2022/01/28 12:20:22;;;;;;;14.35;3.15;;;;;;;9.31;100.00;103429.75;5081840;28;20168;-69
2022/01/28 12:23:02;;;;;;;21.38;3.72;;;;;;;9.33;100.00;103423.03;5080977;28;20135;-68
2022/01/28 12:25:43;;;;;;;14.35;3.65;;;;;;;9.51;100.00;103416.06;5083208;28;20344;-69
2022/01/28 12:28:19;;;;;;;19.10;4.15;;;;;;;9.42;100.00;103409.97;5082741;28;20092;-68
2022/01/28 12:31:07;;;;;;;12.45;3.60;;;;;;;9.53;100.00;103403.00;5082007;28;20028;-69
2022/01/28 12:33:39;;;;;;;13.23;3.65;;;;;;;9.37;100.00;103390.59;5082855;28;20066;-68
2022/01/28 12:36:12;;;;;;;20.52;4.28;;;;;;;9.66;100.00;103388.47;5082823;28;20020;-69
2022/01/28 12:38:54;;;;;;;19.25;4.00;;;;;;;9.77;100.00;103389.69;5083380;28;20028;-68
2022/01/28 12:41:22;;;;;;;14.07;3.17;;;;;;;9.91;100.00;103391.34;5081363;28;20039;-69
2022/01/28 12:43:47;;;;;;;18.30;3.92;;;;;;;10.07;100.00;103373.59;5060833;28;20039;-68
2022/01/28 12:46:15;;;;;;;15.07;3.67;;;;;;;9.92;100.00;103382.91;5065065;28;20040;-70
2022/01/28 12:48:48;;;;;;;16.17;4.10;;;;;;;9.57;100.00;103387.81;5081766;28;20032;-69
2022/01/28 12:51:15;;;;;;;16.85;4.63;;;;;;;10.02;100.00;103389.81;5080910;28;20024;-68
2022/01/28 12:53:43;;;;;;;19.80;4.72;;;;;;;10.20;100.00;103380.88;5081820;28;20371;-66